Terminal Aerodrome Forecast
Issued by NWS Lubbock, TX

Home | Current Version | Previous Version | Text Only | Print | Product List | Glossary On
Versions: 1 2 3 4 5 6 7 8 9 10 11 12 13 14 15 16 17 18 19 20 21 22 23 24 25 26
000
FTUS44 KLUB 310159 AAB
TAFLBB
TAF AMD
KLBB 310159Z 3102/3124 05010KT 5SM RA BKN050 OVC080
     FM310400 05010KT P6SM VCTS SCT035CB BKN080
     FM310700 05007KT 6SM BR BKN012
     FM311800 05007KT P6SM SCT025 BKN050 PROB30 3118/3124 -TSRA
      BKN025CB=

USA.gov is the U.S. government's official web portal to all federal, state and local government web resources and services.